createdAt,value
2017-09-10T00:01:12.696Z,14.00
2017-09-10T00:03:46.195Z,14.00
2017-09-10T00:06:20.497Z,14.00
2017-09-10T00:08:55.000Z,14.00
2017-09-10T00:11:28.682Z,14.00
2017-09-10T00:14:02.200Z,14.00
2017-09-10T00:16:35.854Z,14.00
2017-09-10T00:19:09.402Z,14.00
2017-09-10T00:21:42.936Z,14.00
2017-09-10T00:24:16.432Z,14.00
2017-09-10T00:26:50.046Z,14.00
2017-09-10T00:29:23.583Z,14.00
2017-09-10T00:31:57.151Z,14.00
2017-09-10T00:34:31.519Z,14.00
2017-09-10T00:37:06.061Z,14.00
2017-09-10T00:39:39.968Z,14.00
2017-09-10T00:42:13.689Z,14.00
2017-09-10T00:44:47.863Z,14.00
2017-09-10T00:47:22.205Z,14.00
2017-09-10T00:49:55.796Z,14.00
2017-09-10T00:52:30.122Z,14.00
2017-09-10T00:55:03.784Z,13.90
2017-09-10T00:57:37.432Z,14.00
2017-09-10T01:00:11.028Z,13.90
2017-09-10T01:02:45.345Z,13.90
2017-09-10T01:05:19.026Z,13.90
2017-09-10T01:07:53.361Z,13.90
2017-09-10T01:10:26.933Z,13.90
2017-09-10T01:13:00.551Z,13.90
2017-09-10T01:15:34.161Z,13.90
2017-09-10T01:18:07.724Z,13.90
2017-09-10T01:20:41.341Z,13.90
2017-09-10T01:23:14.973Z,13.90
2017-09-10T01:25:49.259Z,13.90
2017-09-10T01:28:23.779Z,13.90
2017-09-10T01:30:57.350Z,13.90
2017-09-10T01:33:30.989Z,13.90
2017-09-10T01:36:04.518Z,13.90
2017-09-10T01:38:38.814Z,13.90
2017-09-10T01:41:12.478Z,13.90
2017-09-10T01:43:46.008Z,13.90
2017-09-10T01:46:19.605Z,13.90
2017-09-10T01:48:53.150Z,13.90
2017-09-10T01:51:26.679Z,13.90
2017-09-10T01:54:00.296Z,13.80
2017-09-10T01:56:33.908Z,13.90
2017-09-10T01:59:07.516Z,13.80
2017-09-10T02:01:41.114Z,13.80
2017-09-10T02:04:14.733Z,13.80
2017-09-10T02:06:49.036Z,13.80
2017-09-10T02:09:22.556Z,13.80
2017-09-10T02:11:56.063Z,13.80
2017-09-10T02:14:29.631Z,13.80
2017-09-10T02:17:03.245Z,13.80
2017-09-10T02:19:37.574Z,13.80
2017-09-10T02:22:11.262Z,13.80
2017-09-10T02:24:44.849Z,13.80
2017-09-10T02:27:18.382Z,13.80
2017-09-10T02:29:51.864Z,13.80
2017-09-10T02:32:26.154Z,13.80
2017-09-10T02:34:59.972Z,13.70
2017-09-10T02:37:33.550Z,13.70
2017-09-10T02:40:07.077Z,13.70
2017-09-10T02:42:41.490Z,13.70
2017-09-10T02:45:15.220Z,13.70
2017-09-10T02:47:48.773Z,13.70
2017-09-10T02:50:22.356Z,13.70
2017-09-10T02:52:56.686Z,13.70
2017-09-10T02:55:30.398Z,13.70
2017-09-10T02:58:03.915Z,13.70
2017-09-10T03:00:38.235Z,13.70
2017-09-10T03:03:11.937Z,13.70
2017-09-10T03:05:45.533Z,13.70
2017-09-10T03:08:19.103Z,13.70
2017-09-10T03:10:52.647Z,13.70
2017-09-10T03:13:26.203Z,13.70
2017-09-10T03:15:59.741Z,13.70
2017-09-10T03:18:34.038Z,13.70
2017-09-10T03:21:08.557Z,13.70
2017-09-10T03:23:43.773Z,13.70
2017-09-10T03:26:18.133Z,13.60
2017-09-10T03:28:51.831Z,13.60
2017-09-10T03:31:25.389Z,13.60
2017-09-10T03:33:58.913Z,13.60
2017-09-10T03:36:32.549Z,13.60
2017-09-10T03:39:06.288Z,13.70
2017-09-10T03:41:39.834Z,13.60
2017-09-10T03:44:13.441Z,13.60
2017-09-10T03:46:47.146Z,13.60
2017-09-10T03:49:20.719Z,13.60
2017-09-10T03:51:55.038Z,13.60
2017-09-10T03:54:29.443Z,13.60
2017-09-10T03:57:03.050Z,13.60
2017-09-10T03:59:36.570Z,13.60
2017-09-10T04:02:10.173Z,13.60
2017-09-10T04:04:43.742Z,13.60
2017-09-10T04:07:17.358Z,13.60
2017-09-10T04:09:50.956Z,13.60
2017-09-10T04:12:24.524Z,13.60
2017-09-10T04:14:58.263Z,13.60
2017-09-10T04:17:32.579Z,13.50
2017-09-10T04:20:06.997Z,13.50
2017-09-10T04:22:40.530Z,13.50
2017-09-10T04:25:14.084Z,13.50
2017-09-10T04:27:47.630Z,13.50
2017-09-10T04:30:22.113Z,13.50
2017-09-10T04:32:56.623Z,13.60
2017-09-10T04:35:30.229Z,13.50
2017-09-10T04:38:03.784Z,13.50
2017-09-10T04:40:37.460Z,13.50
2017-09-10T04:43:11.184Z,13.50
2017-09-10T04:45:44.728Z,13.50
2017-09-10T04:48:18.373Z,13.50
2017-09-10T04:50:51.898Z,13.50
2017-09-10T04:53:25.408Z,13.50
2017-09-10T04:55:58.954Z,13.50
2017-09-10T04:58:33.252Z,13.50
2017-09-10T05:01:06.839Z,13.50
2017-09-10T05:03:40.336Z,13.50
2017-09-10T05:06:14.874Z,13.50
2017-09-10T05:08:48.450Z,13.50
2017-09-10T05:11:22.131Z,13.50
2017-09-10T05:13:55.694Z,13.50
2017-09-10T05:16:29.369Z,13.50
2017-09-10T05:19:03.033Z,13.50
2017-09-10T05:21:36.581Z,13.50
2017-09-10T05:24:10.208Z,13.50
2017-09-10T05:26:43.788Z,13.40
2017-09-10T05:29:18.124Z,13.40
2017-09-10T05:31:51.796Z,13.40
2017-09-10T05:34:25.388Z,13.50
2017-09-10T05:36:58.936Z,13.40
2017-09-10T05:39:32.526Z,13.40
2017-09-10T05:42:07.008Z,13.40
2017-09-10T05:44:40.637Z,13.40
2017-09-10T05:47:14.410Z,13.50
2017-09-10T05:49:48.755Z,13.50
2017-09-10T05:52:23.236Z,13.40
2017-09-10T05:54:56.950Z,13.40
2017-09-10T05:57:31.390Z,13.40
2017-09-10T06:00:05.101Z,13.40
2017-09-10T06:02:38.694Z,13.50
2017-09-10T06:05:12.219Z,13.40
2017-09-10T06:07:45.806Z,13.40
2017-09-10T06:10:20.122Z,13.40
2017-09-10T06:12:54.610Z,13.40
2017-09-10T06:15:28.365Z,13.40
2017-09-10T06:18:01.868Z,13.40
2017-09-10T06:20:35.466Z,13.40
2017-09-10T06:23:08.952Z,13.40
2017-09-10T06:25:42.496Z,13.40
2017-09-10T06:28:16.037Z,13.50
2017-09-10T06:30:49.611Z,13.50
2017-09-10T06:33:23.103Z,13.50
2017-09-10T06:35:56.640Z,13.50
2017-09-10T06:38:30.215Z,13.50
2017-09-10T06:41:03.821Z,13.50
2017-09-10T06:43:37.351Z,13.50
2017-09-10T06:46:10.910Z,13.50
2017-09-10T06:48:44.464Z,13.50
2017-09-10T06:51:17.993Z,13.50
2017-09-10T06:53:51.572Z,13.50
2017-09-10T06:56:25.182Z,13.50
2017-09-10T06:58:58.739Z,13.50
2017-09-10T07:01:32.400Z,13.50
2017-09-10T07:04:06.725Z,13.50
2017-09-10T07:06:40.445Z,13.50
2017-09-10T07:09:14.784Z,13.50
2017-09-10T07:11:48.399Z,13.50
2017-09-10T07:14:22.737Z,13.60
2017-09-10T07:16:56.318Z,13.50
2017-09-10T07:19:29.881Z,13.60
2017-09-10T07:22:04.204Z,13.60
2017-09-10T07:24:37.902Z,13.60
2017-09-10T07:27:12.196Z,13.60
2017-09-10T07:29:45.901Z,13.60
2017-09-10T07:32:20.239Z,13.60
2017-09-10T07:34:54.409Z,13.60
2017-09-10T07:37:27.970Z,13.60
2017-09-10T07:40:01.524Z,13.60
2017-09-10T07:42:35.076Z,13.60
2017-09-10T07:45:09.336Z,13.60
2017-09-10T07:47:43.789Z,13.60
2017-09-10T07:50:17.434Z,13.60
2017-09-10T07:52:51.037Z,13.60
2017-09-10T07:55:24.881Z,13.60
2017-09-10T07:57:58.407Z,13.70
2017-09-10T08:00:32.693Z,13.60
2017-09-10T08:03:06.431Z,13.60
2017-09-10T08:05:39.999Z,13.60
2017-09-10T08:08:13.504Z,13.60
2017-09-10T08:10:47.059Z,13.60
2017-09-10T08:13:20.683Z,13.70
2017-09-10T08:15:54.194Z,13.70
2017-09-10T08:18:28.542Z,13.70
2017-09-10T08:21:02.086Z,13.70
2017-09-10T08:23:35.749Z,13.70
2017-09-10T08:26:09.243Z,13.70
2017-09-10T08:28:43.553Z,13.70
2017-09-10T08:31:17.241Z,13.70
2017-09-10T08:33:50.848Z,13.70
2017-09-10T08:36:24.347Z,13.70
2017-09-10T08:38:57.924Z,13.70
2017-09-10T08:41:32.245Z,13.70
2017-09-10T08:44:06.576Z,13.70
2017-09-10T08:46:40.871Z,13.80
2017-09-10T08:49:14.389Z,13.70
2017-09-10T08:51:47.977Z,13.80
2017-09-10T08:54:21.496Z,13.80
2017-09-10T08:56:56.215Z,13.80
2017-09-10T08:59:29.925Z,13.80
2017-09-10T09:02:03.516Z,13.80
2017-09-10T09:04:37.101Z,13.80
2017-09-10T09:07:10.734Z,13.90
2017-09-10T09:09:45.032Z,13.90
2017-09-10T09:12:18.749Z,13.90
2017-09-10T09:14:52.333Z,13.90
2017-09-10T09:17:25.903Z,13.90
2017-09-10T09:19:59.546Z,13.90
2017-09-10T09:22:33.100Z,13.90
2017-09-10T09:25:06.765Z,13.90
2017-09-10T09:27:40.554Z,13.90
2017-09-10T09:30:14.473Z,14.00
2017-09-10T09:32:48.471Z,14.00
2017-09-10T09:35:23.186Z,14.00
2017-09-10T09:37:56.830Z,14.00
2017-09-10T09:40:31.320Z,14.00
2017-09-10T09:43:04.831Z,14.00
2017-09-10T09:45:38.394Z,14.00
2017-09-10T09:48:12.120Z,14.00
2017-09-10T09:50:45.640Z,14.00
2017-09-10T09:53:19.173Z,14.10
2017-09-10T09:55:52.818Z,14.10
2017-09-10T09:58:26.587Z,14.10
2017-09-10T10:01:01.027Z,14.10
2017-09-10T10:03:34.780Z,14.10
2017-09-10T10:06:08.422Z,14.10
2017-09-10T11:52:29.337Z,14.70
2017-09-10T11:55:03.457Z,14.70
2017-09-10T11:57:37.026Z,14.70
2017-09-10T12:00:10.685Z,14.80
2017-09-10T12:02:45.123Z,14.80
2017-09-10T12:05:18.688Z,14.80
2017-09-10T12:07:52.337Z,14.80
2017-09-10T12:10:25.885Z,14.80
2017-09-10T12:12:59.588Z,14.80
2017-09-10T12:15:33.220Z,14.80
2017-09-10T12:18:06.817Z,14.80
2017-09-10T12:20:40.345Z,14.80
2017-09-10T12:23:13.849Z,14.90
2017-09-10T12:25:47.426Z,14.90
2017-09-10T12:28:21.704Z,14.90
2017-09-10T12:30:55.424Z,14.80
2017-09-10T12:33:28.968Z,14.90
2017-09-10T12:36:02.671Z,14.90
2017-09-10T12:38:36.706Z,14.90
2017-09-10T12:41:11.490Z,14.90
2017-09-10T12:43:45.266Z,14.90
2017-09-10T12:46:18.871Z,14.90
2017-09-10T12:48:52.547Z,15.00
2017-09-10T12:51:26.245Z,15.00
2017-09-10T12:53:59.842Z,15.00
2017-09-10T12:56:33.587Z,15.00
2017-09-10T12:59:07.367Z,15.00
2017-09-10T13:01:41.900Z,15.00
2017-09-10T13:04:16.251Z,15.00
2017-09-10T13:06:50.767Z,15.00
2017-09-10T13:09:24.457Z,15.00
2017-09-10T13:11:58.153Z,15.00
2017-09-10T13:14:31.739Z,15.00
2017-09-10T13:17:05.257Z,15.00
2017-09-10T13:19:39.665Z,15.00
2017-09-10T13:22:13.354Z,15.00
2017-09-10T13:24:46.998Z,15.10
2017-09-10T13:27:20.719Z,15.10
2017-09-10T13:29:54.818Z,15.10
2017-09-10T13:32:29.207Z,15.10
2017-09-10T13:35:02.920Z,15.10
2017-09-10T13:37:36.520Z,15.10
2017-09-10T13:40:10.102Z,15.10
2017-09-10T13:42:43.741Z,15.10
2017-09-10T13:45:17.334Z,15.20
2017-09-10T13:47:51.039Z,15.20
2017-09-10T13:50:24.622Z,15.20
2017-09-10T13:52:58.205Z,15.20
2017-09-10T13:55:31.809Z,15.20
2017-09-10T13:58:05.445Z,15.30
2017-09-10T14:00:39.201Z,15.30
2017-09-10T14:03:12.790Z,15.40
2017-09-10T14:05:46.339Z,15.40
2017-09-10T14:08:19.898Z,15.50
2017-09-10T14:10:53.460Z,15.50
2017-09-10T14:13:27.820Z,15.60
2017-09-10T14:16:01.536Z,15.60
2017-09-10T14:18:35.126Z,15.70
2017-09-10T14:21:08.634Z,15.70
2017-09-10T14:23:42.247Z,15.70
2017-09-10T14:26:15.978Z,15.80
2017-09-10T14:28:49.515Z,15.80
2017-09-10T14:31:23.868Z,15.80
2017-09-10T14:33:57.367Z,15.80
2017-09-10T14:36:30.969Z,15.80
2017-09-10T14:39:04.737Z,15.80
2017-09-10T14:41:38.392Z,15.80
2017-09-10T14:44:12.191Z,15.80
2017-09-10T14:46:45.898Z,15.90
2017-09-10T14:49:19.453Z,15.90
2017-09-10T14:51:53.073Z,15.90
2017-09-10T14:54:26.689Z,15.90
2017-09-10T14:57:00.239Z,16.00
2017-09-10T14:59:33.788Z,16.00
2017-09-10T15:02:07.357Z,16.00
2017-09-10T15:04:40.929Z,16.00
2017-09-10T15:07:14.557Z,16.00
2017-09-10T15:09:48.159Z,16.00
2017-09-10T15:12:21.729Z,16.00
2017-09-10T15:14:55.288Z,16.10
2017-09-10T15:17:28.852Z,16.00
2017-09-10T15:20:02.455Z,16.10
2017-09-10T15:22:36.010Z,16.00
2017-09-10T15:25:10.329Z,16.00
2017-09-10T15:27:43.984Z,16.00
2017-09-10T15:30:17.816Z,16.00
2017-09-10T15:32:51.319Z,16.00
2017-09-10T15:35:24.866Z,16.00
2017-09-10T15:37:58.508Z,16.00
2017-09-10T15:40:32.801Z,16.00
2017-09-10T15:43:06.452Z,16.00
2017-09-10T15:45:40.809Z,16.00
2017-09-10T15:48:15.344Z,16.00
2017-09-10T15:50:49.008Z,15.90
2017-09-10T15:53:22.698Z,15.90
2017-09-10T15:55:56.345Z,15.90
2017-09-10T15:58:29.881Z,15.90
2017-09-10T16:01:03.431Z,15.90
2017-09-10T16:03:36.976Z,15.90
2017-09-10T16:06:11.253Z,15.90
2017-09-10T16:08:45.006Z,15.90
2017-09-10T16:11:18.598Z,15.90
2017-09-10T16:13:52.196Z,15.90
2017-09-10T16:16:25.772Z,15.80
2017-09-10T16:18:59.504Z,15.80
2017-09-10T16:21:33.776Z,15.80
2017-09-10T16:24:07.485Z,15.80
2017-09-10T16:26:41.219Z,15.80
2017-09-10T16:29:14.887Z,15.80
2017-09-10T16:31:48.483Z,15.80
2017-09-10T16:34:22.146Z,15.80
2017-09-10T16:36:55.786Z,15.80
2017-09-10T16:39:29.318Z,15.70
2017-09-10T16:42:02.923Z,15.70
2017-09-10T16:44:36.640Z,15.70
2017-09-10T16:47:10.182Z,15.70
2017-09-10T16:49:43.722Z,15.70
2017-09-10T16:52:17.831Z,15.70
2017-09-10T16:54:51.403Z,15.60
2017-09-10T16:57:25.150Z,15.60
2017-09-10T16:59:58.708Z,15.60
2017-09-10T17:02:32.413Z,15.60
2017-09-10T17:05:06.005Z,15.60
2017-09-10T17:07:40.431Z,15.60
2017-09-10T17:10:14.121Z,15.50
2017-09-10T17:12:47.724Z,15.60
2017-09-10T17:15:22.085Z,15.50
2017-09-10T17:17:55.727Z,15.50
2017-09-10T17:20:29.376Z,15.50
2017-09-10T17:23:03.673Z,15.50
2017-09-10T17:25:37.365Z,15.40
2017-09-10T17:28:10.894Z,15.50
2017-09-10T17:30:44.469Z,15.50
2017-09-10T17:33:18.027Z,15.40
2017-09-10T17:35:51.577Z,15.40
2017-09-10T17:38:25.148Z,15.40
2017-09-10T17:40:58.779Z,15.40
2017-09-10T17:43:32.369Z,15.40
2017-09-10T17:46:05.976Z,15.40
2017-09-10T17:48:39.567Z,15.40
2017-09-10T17:51:13.931Z,15.30
2017-09-10T17:53:47.575Z,15.30
2017-09-10T17:56:21.114Z,15.30
2017-09-10T17:58:54.687Z,15.30
2017-09-10T18:01:29.070Z,15.30
2017-09-10T18:04:02.736Z,15.30
2017-09-10T18:06:36.311Z,15.30
2017-09-10T18:09:09.873Z,15.30
2017-09-10T18:11:43.424Z,15.30
2017-09-10T18:14:16.976Z,15.30
2017-09-10T18:16:50.578Z,15.20
2017-09-10T18:19:24.153Z,15.20
2017-09-10T18:21:57.797Z,15.20
2017-09-10T18:24:31.504Z,15.20
2017-09-10T18:27:05.049Z,15.20
2017-09-10T18:29:38.586Z,15.20
2017-09-10T18:32:12.944Z,15.20
2017-09-10T18:34:46.674Z,15.10
2017-09-10T18:37:20.266Z,15.20
2017-09-10T18:39:53.832Z,15.20
2017-09-10T18:42:27.461Z,15.10
2017-09-10T18:45:01.137Z,15.10
2017-09-10T18:47:35.472Z,15.10
2017-09-10T18:50:09.176Z,15.10
2017-09-10T18:52:42.757Z,15.10
2017-09-10T18:55:17.072Z,15.00
2017-09-10T18:57:52.020Z,15.00
2017-09-10T19:00:25.700Z,15.00
2017-09-10T19:03:00.053Z,15.00
2017-09-10T19:05:33.762Z,15.00
2017-09-10T19:08:07.419Z,15.00
2017-09-10T19:10:40.939Z,15.00
2017-09-10T19:13:14.544Z,14.90
2017-09-10T19:15:48.112Z,14.90
2017-09-10T19:18:21.688Z,14.90
2017-09-10T19:20:56.236Z,14.90
2017-09-10T19:23:30.600Z,14.90
2017-09-10T19:26:04.257Z,14.80
2017-09-10T19:28:37.853Z,14.90
2017-09-10T19:31:11.453Z,14.90
2017-09-10T19:33:45.181Z,14.80
2017-09-10T19:36:19.558Z,14.80
2017-09-10T19:38:53.316Z,14.80
2017-09-10T19:41:27.607Z,14.80
2017-09-10T19:44:01.360Z,14.80
2017-09-10T19:46:34.902Z,14.80
2017-09-10T19:49:08.512Z,14.80
2017-09-10T19:51:42.822Z,14.70
2017-09-10T19:54:16.633Z,14.70
2017-09-10T19:56:50.159Z,14.70
2017-09-10T19:59:23.753Z,14.70
2017-09-10T20:01:57.356Z,14.70
2017-09-10T20:04:31.677Z,14.70
2017-09-10T20:07:05.357Z,14.70
2017-09-10T20:09:38.925Z,14.70
2017-09-10T20:12:12.541Z,14.70
2017-09-10T20:14:46.064Z,14.70
2017-09-10T20:17:19.658Z,14.70
2017-09-10T20:19:53.359Z,14.70
2017-09-10T20:22:27.158Z,14.60
2017-09-10T20:25:01.478Z,14.60
2017-09-10T20:27:35.146Z,14.60
2017-09-10T20:30:08.825Z,14.60
2017-09-10T20:32:42.406Z,14.60
2017-09-10T20:35:15.905Z,14.60
2017-09-10T20:37:49.504Z,14.60
2017-09-10T20:40:23.083Z,14.60
2017-09-10T20:42:56.799Z,14.60
2017-09-10T20:45:30.373Z,14.60
2017-09-10T20:48:03.989Z,14.60
2017-09-10T20:50:37.647Z,14.50
2017-09-10T20:53:12.105Z,14.50
2017-09-10T20:55:45.720Z,14.50
2017-09-10T20:58:19.421Z,14.50
2017-09-10T21:00:52.950Z,14.50
2017-09-10T21:03:27.528Z,14.40
2017-09-10T21:06:02.003Z,14.40
2017-09-10T21:08:35.843Z,14.40
2017-09-10T21:11:09.612Z,14.40
2017-09-10T21:13:43.989Z,14.40
2017-09-10T21:16:17.795Z,14.40
2017-09-10T21:18:51.494Z,14.40
2017-09-10T21:21:25.248Z,14.30
2017-09-10T21:23:59.146Z,14.30
2017-09-10T21:26:33.022Z,14.30
2017-09-10T21:29:06.688Z,14.30
2017-09-10T21:31:40.536Z,14.30
2017-09-10T21:34:15.974Z,14.20
2017-09-10T21:36:50.529Z,14.20
2017-09-10T21:39:24.977Z,14.20
2017-09-10T21:41:58.663Z,14.20
2017-09-10T21:44:32.507Z,14.20
2017-09-10T21:47:06.288Z,14.20
2017-09-10T21:49:40.109Z,14.10
2017-09-10T21:52:14.501Z,14.10
2017-09-10T21:54:48.154Z,14.10
2017-09-10T21:57:21.879Z,14.10
2017-09-10T21:59:55.522Z,14.10
2017-09-10T22:02:29.231Z,14.10
2017-09-10T22:05:03.162Z,14.10
2017-09-10T22:07:37.391Z,14.00
2017-09-10T22:10:11.814Z,14.00
2017-09-10T22:12:45.387Z,14.00
2017-09-10T22:15:19.120Z,14.00
2017-09-10T22:17:53.252Z,14.00
2017-09-10T22:20:26.978Z,14.00
2017-09-10T22:23:00.757Z,14.00
2017-09-10T22:25:34.323Z,14.00
2017-09-10T22:28:08.017Z,13.90
2017-09-10T22:30:41.586Z,13.90
2017-09-10T22:33:15.369Z,13.90
2017-09-10T22:35:50.049Z,13.90
2017-09-10T22:38:23.762Z,13.90
2017-09-10T22:40:58.335Z,13.90
2017-09-10T22:43:33.599Z,13.80
2017-09-10T22:46:08.163Z,13.80
2017-09-10T22:48:42.759Z,13.80
2017-09-10T22:51:16.454Z,13.80
2017-09-10T22:53:51.162Z,13.80
2017-09-10T22:56:24.895Z,13.80
2017-09-10T22:58:58.661Z,13.80
2017-09-10T23:01:33.267Z,13.70
2017-09-10T23:04:07.015Z,13.70
2017-09-10T23:06:41.565Z,13.70
2017-09-10T23:09:16.127Z,13.60
2017-09-10T23:11:49.760Z,13.60
2017-09-10T23:14:23.327Z,13.60
2017-09-10T23:16:56.883Z,13.60
2017-09-10T23:19:31.010Z,13.60
2017-09-10T23:22:04.785Z,13.60
2017-09-10T23:24:38.480Z,13.60
2017-09-10T23:27:13.067Z,13.60
2017-09-10T23:29:48.490Z,13.60
2017-09-10T23:32:22.228Z,13.50
2017-09-10T23:34:56.691Z,13.50
2017-09-10T23:37:31.204Z,13.50
2017-09-10T23:40:05.768Z,13.50
2017-09-10T23:42:39.496Z,13.40
2017-09-10T23:45:13.053Z,13.40
2017-09-10T23:47:47.641Z,13.40
2017-09-10T23:50:21.473Z,13.40
2017-09-10T23:52:56.028Z,13.40
2017-09-10T23:55:32.153Z,13.30
2017-09-10T23:58:05.896Z,13.30
